sensor_id;sensor_type;location;lat;lon;timestamp;pressure;altitude;pressure_sealevel;temperature;humidity
70011;BME280;59543;37.950;-122.338;2023-10-13T00:02:09;100700.91;;;23.43;46.56
70011;BME280;59543;37.950;-122.338;2023-10-13T00:04:36;100688.84;;;23.02;46.65
70011;BME280;59543;37.950;-122.338;2023-10-13T00:07:03;100680.88;;;22.64;47.98
70011;BME280;59543;37.950;-122.338;2023-10-13T00:09:31;100683.00;;;22.62;47.08
70011;BME280;59543;37.950;-122.338;2023-10-13T00:12:05;100678.25;;;22.39;48.57
70011;BME280;59543;37.950;-122.338;2023-10-13T00:14:40;100677.34;;;22.27;48.30
70011;BME280;59543;37.950;-122.338;2023-10-13T00:17:07;100676.59;;;22.13;47.20
70011;BME280;59543;37.950;-122.338;2023-10-13T00:19:38;100674.94;;;21.87;47.05
70011;BME280;59543;37.950;-122.338;2023-10-13T00:22:15;100688.88;;;21.85;47.97
70011;BME280;59543;37.950;-122.338;2023-10-13T00:24:43;100681.66;;;21.91;47.19
70011;BME280;59543;37.950;-122.338;2023-10-13T00:27:17;100690.00;;;21.78;47.70
70011;BME280;59543;37.950;-122.338;2023-10-13T00:30:04;100693.97;;;21.82;47.06
70011;BME280;59543;37.950;-122.338;2023-10-13T00:32:49;100694.53;;;21.90;47.52
70011;BME280;59543;37.950;-122.338;2023-10-13T00:35:22;100700.50;;;22.06;47.58
70011;BME280;59543;37.950;-122.338;2023-10-13T00:37:57;100688.81;;;21.92;47.21
70011;BME280;59543;37.950;-122.338;2023-10-13T00:40:30;100700.50;;;21.81;47.43
70011;BME280;59543;37.950;-122.338;2023-10-13T00:42:58;100707.81;;;21.87;47.71
70011;BME280;59543;37.950;-122.338;2023-10-13T00:45:47;100713.28;;;21.87;46.68
70011;BME280;59543;37.950;-122.338;2023-10-13T00:48:30;100715.25;;;21.80;47.70
70011;BME280;59543;37.950;-122.338;2023-10-13T00:51:06;100702.06;;;21.70;48.36
70011;BME280;59543;37.950;-122.338;2023-10-13T00:53:34;100692.72;;;21.53;48.88
70011;BME280;59543;37.950;-122.338;2023-10-13T00:56:06;100694.41;;;21.54;49.98
70011;BME280;59543;37.950;-122.338;2023-10-13T00:58:37;100697.03;;;21.35;50.51
70011;BME280;59543;37.950;-122.338;2023-10-13T01:01:06;100700.50;;;21.24;50.64
70011;BME280;59543;37.950;-122.338;2023-10-13T01:03:54;100705.91;;;21.31;50.46
70011;BME280;59543;37.950;-122.338;2023-10-13T01:06:29;100699.63;;;21.30;49.83
70011;BME280;59543;37.950;-122.338;2023-10-13T01:09:03;100695.19;;;20.97;51.77
70011;BME280;59543;37.950;-122.338;2023-10-13T01:11:39;100706.75;;;20.93;53.09
70011;BME280;59543;37.950;-122.338;2023-10-13T01:14:05;100706.41;;;20.83;53.46
70011;BME280;59543;37.950;-122.338;2023-10-13T01:16:31;100709.59;;;20.66;54.18
70011;BME280;59543;37.950;-122.338;2023-10-13T01:18:58;100703.53;;;20.51;54.39
70011;BME280;59543;37.950;-122.338;2023-10-13T01:21:31;100705.91;;;20.41;55.24
70011;BME280;59543;37.950;-122.338;2023-10-13T01:24:00;100701.94;;;20.23;55.77
70011;BME280;59543;37.950;-122.338;2023-10-13T01:26:26;100708.69;;;20.14;56.28
70011;BME280;59543;37.950;-122.338;2023-10-13T01:29:01;100712.69;;;20.05;57.36
70011;BME280;59543;37.950;-122.338;2023-10-13T01:31:27;100710.38;;;20.02;57.06
70011;BME280;59543;37.950;-122.338;2023-10-13T01:33:56;100707.25;;;19.78;57.39
70011;BME280;59543;37.950;-122.338;2023-10-13T01:36:26;100711.22;;;19.76;57.17
70011;BME280;59543;37.950;-122.338;2023-10-13T01:38:54;100724.00;;;19.62;58.40
70011;BME280;59543;37.950;-122.338;2023-10-13T01:41:23;100721.72;;;19.59;58.57
70011;BME280;59543;37.950;-122.338;2023-10-13T01:43:49;100715.38;;;19.52;58.52
70011;BME280;59543;37.950;-122.338;2023-10-13T01:46:16;100729.19;;;19.30;59.06
70011;BME280;59543;37.950;-122.338;2023-10-13T01:48:47;100719.13;;;19.24;59.41
70011;BME280;59543;37.950;-122.338;2023-10-13T01:51:13;100728.56;;;19.22;59.64
70011;BME280;59543;37.950;-122.338;2023-10-13T01:53:40;100724.16;;;19.14;60.23
70011;BME280;59543;37.950;-122.338;2023-10-13T01:56:10;100725.56;;;19.03;60.46
70011;BME280;59543;37.950;-122.338;2023-10-13T01:58:37;100736.38;;;18.83;61.45
70011;BME280;59543;37.950;-122.338;2023-10-13T02:01:07;100736.31;;;18.70;61.96
70011;BME280;59543;37.950;-122.338;2023-10-13T02:03:33;100744.13;;;18.73;62.02
70011;BME280;59543;37.950;-122.338;2023-10-13T02:06:02;100748.25;;;18.62;62.31
70011;BME280;59543;37.950;-122.338;2023-10-13T02:08:30;100748.75;;;18.44;62.28
70011;BME280;59543;37.950;-122.338;2023-10-13T02:10:57;100743.53;;;18.49;61.75
70011;BME280;59543;37.950;-122.338;2023-10-13T02:13:27;100738.13;;;18.56;61.49
70011;BME280;59543;37.950;-122.338;2023-10-13T02:15:57;100742.69;;;18.49;61.05
70011;BME280;59543;37.950;-122.338;2023-10-13T02:18:24;100740.84;;;18.56;60.46
70011;BME280;59543;37.950;-122.338;2023-10-13T02:20:54;100742.66;;;18.42;60.90
70011;BME280;59543;37.950;-122.338;2023-10-13T02:23:24;100745.69;;;18.26;60.55
70011;BME280;59543;37.950;-122.338;2023-10-13T02:25:51;100739.13;;;18.14;60.23
70011;BME280;59543;37.950;-122.338;2023-10-13T02:28:29;100736.50;;;17.99;60.49
70011;BME280;59543;37.950;-122.338;2023-10-13T02:31:02;100734.06;;;17.82;61.00
70011;BME280;59543;37.950;-122.338;2023-10-13T02:33:32;100738.88;;;17.80;61.33
70011;BME280;59543;37.950;-122.338;2023-10-13T02:36:00;100737.50;;;17.70;61.68
70011;BME280;59543;37.950;-122.338;2023-10-13T02:38:31;100737.63;;;17.62;61.01
70011;BME280;59543;37.950;-122.338;2023-10-13T02:41:18;100744.81;;;17.48;60.66
70011;BME280;59543;37.950;-122.338;2023-10-13T02:43:52;100751.22;;;17.40;60.40
70011;BME280;59543;37.950;-122.338;2023-10-13T02:46:20;100747.84;;;17.38;59.76
70011;BME280;59543;37.950;-122.338;2023-10-13T02:48:49;100753.06;;;17.33;59.65
70011;BME280;59543;37.950;-122.338;2023-10-13T02:51:24;100763.94;;;17.33;59.65
70011;BME280;59543;37.950;-122.338;2023-10-13T02:54:16;100778.22;;;17.42;59.31
70011;BME280;59543;37.950;-122.338;2023-10-13T02:56:45;100777.69;;;17.31;59.80
70011;BME280;59543;37.950;-122.338;2023-10-13T02:59:28;100772.31;;;17.38;59.72
70011;BME280;59543;37.950;-122.338;2023-10-13T03:02:08;100770.72;;;17.07;60.38
70011;BME280;59543;37.950;-122.338;2023-10-13T03:04:50;100769.31;;;17.11;60.13
70011;BME280;59543;37.950;-122.338;2023-10-13T03:07:16;100765.69;;;17.04;60.37
70011;BME280;59543;37.950;-122.338;2023-10-13T03:09:50;100768.34;;;16.83;60.92
70011;BME280;59543;37.950;-122.338;2023-10-13T03:12:17;100755.03;;;16.88;60.59
70011;BME280;59543;37.950;-122.338;2023-10-13T03:14:43;100762.31;;;16.73;61.02
70011;BME280;59543;37.950;-122.338;2023-10-13T03:17:21;100765.41;;;16.69;61.18
70011;BME280;59543;37.950;-122.338;2023-10-13T03:19:59;100768.25;;;16.76;60.55
70011;BME280;59543;37.950;-122.338;2023-10-13T03:22:26;100764.56;;;16.69;60.74
70011;BME280;59543;37.950;-122.338;2023-10-13T03:24:59;100764.56;;;16.69;60.41
70011;BME280;59543;37.950;-122.338;2023-10-13T03:27:33;100754.56;;;16.55;60.83
70011;BME280;59543;37.950;-122.338;2023-10-13T03:30:14;100755.13;;;16.50;60.03
70011;BME280;59543;37.950;-122.338;2023-10-13T03:32:42;100759.16;;;16.25;60.24
70011;BME280;59543;37.950;-122.338;2023-10-13T03:35:16;100748.03;;;16.34;59.38
70011;BME280;59543;37.950;-122.338;2023-10-13T03:37:54;100750.88;;;16.03;60.13
70011;BME280;59543;37.950;-122.338;2023-10-13T03:40:21;100751.34;;;15.92;60.56
70011;BME280;59543;37.950;-122.338;2023-10-13T03:42:48;100758.03;;;15.81;60.88
70011;BME280;59543;37.950;-122.338;2023-10-13T03:45:40;100758.41;;;15.78;60.97
70011;BME280;59543;37.950;-122.338;2023-10-13T03:48:14;100758.88;;;15.82;60.81
70011;BME280;59543;37.950;-122.338;2023-10-13T03:50:54;100757.91;;;15.97;60.97
70011;BME280;59543;37.950;-122.338;2023-10-13T03:53:37;100764.13;;;15.83;61.35
70011;BME280;59543;37.950;-122.338;2023-10-13T03:56:25;100764.91;;;15.69;61.91
70011;BME280;59543;37.950;-122.338;2023-10-13T03:58:56;100763.25;;;15.68;62.00
70011;BME280;59543;37.950;-122.338;2023-10-13T04:01:33;100767.97;;;15.66;62.27
70011;BME280;59543;37.950;-122.338;2023-10-13T04:04:25;100761.81;;;15.49;63.05
70011;BME280;59543;37.950;-122.338;2023-10-13T04:07:08;100754.03;;;15.46;63.30
70011;BME280;59543;37.950;-122.338;2023-10-13T04:09:36;100759.91;;;15.35;63.68
70011;BME280;59543;37.950;-122.338;2023-10-13T04:12:04;100756.69;;;15.31;63.53
70011;BME280;59543;37.950;-122.338;2023-10-13T04:14:35;100761.88;;;15.41;63.16
70011;BME280;59543;37.950;-122.338;2023-10-13T04:17:20;100759.97;;;15.18;64.13
70011;BME280;59543;37.950;-122.338;2023-10-13T04:19:55;100753.56;;;15.19;63.92
70011;BME280;59543;37.950;-122.338;2023-10-13T04:22:34;100745.50;;;15.03;64.24
70011;BME280;59543;37.950;-122.338;2023-10-13T04:28:06;100758.81;;;14.90;64.00
70011;BME280;59543;37.950;-122.338;2023-10-13T04:33:31;100752.88;;;14.86;64.55
70011;BME280;59543;37.950;-122.338;2023-10-13T04:36:10;100758.28;;;14.86;64.27
70011;BME280;59543;37.950;-122.338;2023-10-13T04:38:48;100762.25;;;14.75;64.18
70011;BME280;59543;37.950;-122.338;2023-10-13T04:41:37;100762.72;;;14.79;64.33
70011;BME280;59543;37.950;-122.338;2023-10-13T04:44:16;100769.44;;;14.52;64.57
70011;BME280;59543;37.950;-122.338;2023-10-13T04:47:02;100771.56;;;14.64;63.82
70011;BME280;59543;37.950;-122.338;2023-10-13T04:49:33;100773.81;;;14.53;64.23
70011;BME280;59543;37.950;-122.338;2023-10-13T04:52:09;100777.88;;;14.40;64.55
70011;BME280;59543;37.950;-122.338;2023-10-13T04:54:40;100779.25;;;14.28;65.33
70011;BME280;59543;37.950;-122.338;2023-10-13T04:57:21;100787.72;;;14.41;65.16
70011;BME280;59543;37.950;-122.338;2023-10-13T05:00:25;100788.06;;;14.30;65.34
70011;BME280;59543;37.950;-122.338;2023-10-13T05:03:10;100788.91;;;14.23;65.72
70011;BME280;59543;37.950;-122.338;2023-10-13T05:06:06;100790.63;;;14.07;66.40
70011;BME280;59543;37.950;-122.338;2023-10-13T05:08:58;100790.47;;;14.17;66.24
70011;BME280;59543;37.950;-122.338;2023-10-13T05:11:42;100793.66;;;14.21;65.74
70011;BME280;59543;37.950;-122.338;2023-10-13T05:14:27;100790.47;;;14.17;65.86
70011;BME280;59543;37.950;-122.338;2023-10-13T05:17:11;100789.44;;;14.18;65.72
70011;BME280;59543;37.950;-122.338;2023-10-13T05:19:57;100793.84;;;14.03;66.10
70011;BME280;59543;37.950;-122.338;2023-10-13T05:22:42;100787.41;;;14.04;65.52
70011;BME280;59543;37.950;-122.338;2023-10-13T05:25:26;100786.25;;;13.98;64.84
70011;BME280;59543;37.950;-122.338;2023-10-13T05:28:11;100780.34;;;13.94;63.09
70011;BME280;59543;37.950;-122.338;2023-10-13T05:30:59;100781.03;;;13.97;63.54
70011;BME280;59543;37.950;-122.338;2023-10-13T05:33:44;100795.03;;;13.92;63.50
70011;BME280;59543;37.950;-122.338;2023-10-13T05:36:28;100796.56;;;14.03;63.38
70011;BME280;59543;37.950;-122.338;2023-10-13T05:39:12;100803.47;;;13.89;63.76
70011;BME280;59543;37.950;-122.338;2023-10-13T05:41:57;100805.53;;;13.79;63.72
70011;BME280;59543;37.950;-122.338;2023-10-13T05:44:41;100803.66;;;13.71;64.81
70011;BME280;59543;37.950;-122.338;2023-10-13T05:47:26;100799.78;;;13.90;65.38
70011;BME280;59543;37.950;-122.338;2023-10-13T05:50:13;100807.03;;;13.73;65.88
70011;BME280;59543;37.950;-122.338;2023-10-13T05:52:49;100804.84;;;13.60;66.45
70011;BME280;59543;37.950;-122.338;2023-10-13T05:55:29;100808.88;;;13.56;66.62
70011;BME280;59543;37.950;-122.338;2023-10-13T05:58:13;100793.00;;;13.45;67.28
70011;BME280;59543;37.950;-122.338;2023-10-13T06:00:58;100791.59;;;13.33;68.19
70011;BME280;59543;37.950;-122.338;2023-10-13T06:03:43;100788.06;;;13.32;68.05
70011;BME280;59543;37.950;-122.338;2023-10-13T06:06:28;100786.88;;;13.35;68.38
70011;BME280;59543;37.950;-122.338;2023-10-13T06:09:13;100794.47;;;13.31;67.31
70011;BME280;59543;37.950;-122.338;2023-10-13T06:11:57;100801.16;;;13.19;68.27
70011;BME280;59543;37.950;-122.338;2023-10-13T06:14:45;100800.44;;;13.00;67.56
70011;BME280;59543;37.950;-122.338;2023-10-13T06:17:30;100798.75;;;13.08;67.29
70011;BME280;59543;37.950;-122.338;2023-10-13T06:20:15;100804.78;;;12.93;67.81
70011;BME280;59543;37.950;-122.338;2023-10-13T06:22:59;100809.53;;;12.99;66.71
70011;BME280;59543;37.950;-122.338;2023-10-13T06:25:50;100812.22;;;12.91;65.32
70011;BME280;59543;37.950;-122.338;2023-10-13T06:28:35;100808.69;;;12.91;65.07
70011;BME280;59543;37.950;-122.338;2023-10-13T06:31:08;100814.41;;;12.88;65.72
70011;BME280;59543;37.950;-122.338;2023-10-13T06:33:38;100816.94;;;12.89;64.86
70011;BME280;59543;37.950;-122.338;2023-10-13T06:36:10;100821.13;;;12.84;63.90
70011;BME280;59543;37.950;-122.338;2023-10-13T06:38:37;100813.84;;;12.84;63.65
70011;BME280;59543;37.950;-122.338;2023-10-13T06:41:07;100806.09;;;12.81;63.99
70011;BME280;59543;37.950;-122.338;2023-10-13T06:43:34;100812.69;;;12.87;63.51
70011;BME280;59543;37.950;-122.338;2023-10-13T06:46:12;100822.13;;;12.82;62.51
70011;BME280;59543;37.950;-122.338;2023-10-13T06:48:41;100824.19;;;12.89;63.21
70011;BME280;59543;37.950;-122.338;2023-10-13T06:51:09;100829.25;;;12.92;63.60
70011;BME280;59543;37.950;-122.338;2023-10-13T06:53:47;100831.59;;;12.87;63.98
70011;BME280;59543;37.950;-122.338;2023-10-13T06:56:17;100833.63;;;12.85;63.09
70011;BME280;59543;37.950;-122.338;2023-10-13T06:59:09;100840.06;;;12.92;63.63
70011;BME280;59543;37.950;-122.338;2023-10-13T07:01:35;100840.53;;;12.87;63.61
70011;BME280;59543;37.950;-122.338;2023-10-13T07:04:06;100837.16;;;12.85;62.65
70011;BME280;59543;37.950;-122.338;2023-10-13T07:06:40;100843.72;;;12.82;63.01
70011;BME280;59543;37.950;-122.338;2023-10-13T07:09:10;100839.31;;;12.81;63.19
70011;BME280;59543;37.950;-122.338;2023-10-13T07:11:53;100838.31;;;12.82;62.91
70011;BME280;59543;37.950;-122.338;2023-10-13T07:14:20;100837.81;;;12.87;62.72
70011;BME280;59543;37.950;-122.338;2023-10-13T07:17:01;100830.44;;;12.89;62.71
70011;BME280;59543;37.950;-122.338;2023-10-13T07:19:28;100838.53;;;12.89;63.04
70011;BME280;59543;37.950;-122.338;2023-10-13T07:21:56;100834.47;;;12.85;63.16
70011;BME280;59543;37.950;-122.338;2023-10-13T07:24:26;100835.13;;;12.87;63.42
70011;BME280;59543;37.950;-122.338;2023-10-13T07:27:05;100837.16;;;12.85;64.06
70011;BME280;59543;37.950;-122.338;2023-10-13T07:29:32;100825.53;;;12.85;63.80
70011;BME280;59543;37.950;-122.338;2023-10-13T07:32:03;100824.66;;;12.84;63.27
70011;BME280;59543;37.950;-122.338;2023-10-13T07:34:31;100822.66;;;12.86;63.32
70011;BME280;59543;37.950;-122.338;2023-10-13T07:36:58;100825.41;;;12.94;63.55
70011;BME280;59543;37.950;-122.338;2023-10-13T07:39:33;100832.09;;;12.90;63.40
70011;BME280;59543;37.950;-122.338;2023-10-13T07:42:00;100841.72;;;12.85;63.51
70011;BME280;59543;37.950;-122.338;2023-10-13T07:44:30;100843.78;;;12.91;64.26
70011;BME280;59543;37.950;-122.338;2023-10-13T07:47:00;100843.09;;;12.89;63.60
70011;BME280;59543;37.950;-122.338;2023-10-13T07:49:31;100847.41;;;12.81;62.95
70011;BME280;59543;37.950;-122.338;2023-10-13T07:52:02;100840.19;;;12.90;62.96
70011;BME280;59543;37.950;-122.338;2023-10-13T07:54:50;100837.69;;;12.89;62.71
70011;BME280;59543;37.950;-122.338;2023-10-13T07:57:37;100840.66;;;12.77;62.84
70011;BME280;59543;37.950;-122.338;2023-10-13T08:00:20;100845.84;;;12.71;63.40
70011;BME280;59543;37.950;-122.338;2023-10-13T08:03:12;100843.94;;;12.63;63.73
70011;BME280;59543;37.950;-122.338;2023-10-13T08:05:45;100832.16;;;12.64;63.88
70011;BME280;59543;37.950;-122.338;2023-10-13T08:08:33;100831.84;;;12.67;63.96
70011;BME280;59543;37.950;-122.338;2023-10-13T08:11:06;100828.13;;;12.68;63.90
70011;BME280;59543;37.950;-122.338;2023-10-13T08:14:00;100845.34;;;12.67;63.91
70011;BME280;59543;37.950;-122.338;2023-10-13T08:16:48;100842.13;;;12.64;64.19
70011;BME280;59543;37.950;-122.338;2023-10-13T08:19:26;100844.59;;;12.57;63.51
70011;BME280;59543;37.950;-122.338;2023-10-13T08:21:57;100846.44;;;12.56;62.63
70011;BME280;59543;37.950;-122.338;2023-10-13T08:24:44;100852.69;;;12.57;63.01
70011;BME280;59543;37.950;-122.338;2023-10-13T08:27:11;100860.13;;;12.55;63.03
70011;BME280;59543;37.950;-122.338;2023-10-13T08:29:59;100862.13;;;12.53;63.24
70011;BME280;59543;37.950;-122.338;2023-10-13T08:32:44;100859.03;;;12.48;63.51
70011;BME280;59543;37.950;-122.338;2023-10-13T08:35:25;100862.88;;;12.45;64.40
70011;BME280;59543;37.950;-122.338;2023-10-13T08:38:03;100853.25;;;12.69;63.76
70011;BME280;59543;37.950;-122.338;2023-10-13T08:40:30;100847.84;;;12.61;63.54
70011;BME280;59543;37.950;-122.338;2023-10-13T08:43:22;100858.06;;;12.57;63.71
70011;BME280;59543;37.950;-122.338;2023-10-13T08:45:50;100854.28;;;12.42;64.09
70011;BME280;59543;37.950;-122.338;2023-10-13T08:48:18;100854.25;;;12.33;65.34
70011;BME280;59543;37.950;-122.338;2023-10-13T08:50:47;100847.00;;;12.34;65.42
70011;BME280;59543;37.950;-122.338;2023-10-13T08:53:29;100835.19;;;12.35;66.06
70011;BME280;59543;37.950;-122.338;2023-10-13T08:56:06;100831.13;;;12.31;66.81
70011;BME280;59543;37.950;-122.338;2023-10-13T08:58:40;100830.41;;;12.29;66.88
70011;BME280;59543;37.950;-122.338;2023-10-13T09:01:26;100859.31;;;12.37;66.76
70011;BME280;59543;37.950;-122.338;2023-10-13T09:04:16;100867.22;;;12.38;66.59
70011;BME280;59543;37.950;-122.338;2023-10-13T09:07:00;100861.63;;;12.31;66.94
70011;BME280;59543;37.950;-122.338;2023-10-13T09:09:52;100863.31;;;12.32;66.86
70011;BME280;59543;37.950;-122.338;2023-10-13T09:12:27;100863.09;;;12.26;66.86
70011;BME280;59543;37.950;-122.338;2023-10-13T09:17:49;100867.13;;;12.22;67.17
70011;BME280;59543;37.950;-122.338;2023-10-13T09:20:39;100873.19;;;12.24;66.93
70011;BME280;59543;37.950;-122.338;2023-10-13T09:23:13;100874.22;;;12.23;66.74
70011;BME280;59543;37.950;-122.338;2023-10-13T09:26:05;100863.72;;;12.20;67.14
70011;BME280;59543;37.950;-122.338;2023-10-13T09:28:38;100867.75;;;12.16;67.29
70011;BME280;59543;37.950;-122.338;2023-10-13T09:31:05;100856.41;;;12.12;66.53
70011;BME280;59543;37.950;-122.338;2023-10-13T09:33:33;100856.19;;;12.05;66.86
70011;BME280;59543;37.950;-122.338;2023-10-13T09:36:03;100860.13;;;12.11;66.84
70011;BME280;59543;37.950;-122.338;2023-10-13T09:38:34;100869.97;;;12.20;66.89
70011;BME280;59543;37.950;-122.338;2023-10-13T09:41:05;100880.34;;;12.33;66.99
70011;BME280;59543;37.950;-122.338;2023-10-13T09:43:46;100886.16;;;12.20;67.23
70011;BME280;59543;37.950;-122.338;2023-10-13T09:46:19;100891.47;;;12.12;67.77
70011;BME280;59543;37.950;-122.338;2023-10-13T09:48:49;100891.09;;;12.07;68.11
70011;BME280;59543;37.950;-122.338;2023-10-13T09:51:31;100893.53;;;12.00;69.10
70011;BME280;59543;37.950;-122.338;2023-10-13T09:57:15;100887.41;;;11.90;71.66
70011;BME280;59543;37.950;-122.338;2023-10-13T09:59:45;100875.91;;;11.88;71.67
70011;BME280;59543;37.950;-122.338;2023-10-13T10:02:18;100883.03;;;11.89;71.43
70011;BME280;59543;37.950;-122.338;2023-10-13T10:04:54;100878.47;;;11.89;70.36
70011;BME280;59543;37.950;-122.338;2023-10-13T10:07:35;100876.09;;;11.86;69.88
70011;BME280;59543;37.950;-122.338;2023-10-13T10:10:01;100874.41;;;11.76;69.28
70011;BME280;59543;37.950;-122.338;2023-10-13T10:12:42;100870.19;;;11.73;69.10
70011;BME280;59543;37.950;-122.338;2023-10-13T10:15:41;100874.06;;;11.71;68.81
70011;BME280;59543;37.950;-122.338;2023-10-13T10:18:20;100876.34;;;11.65;68.81
70011;BME280;59543;37.950;-122.338;2023-10-13T10:20:51;100865.66;;;11.56;69.11
70011;BME280;59543;37.950;-122.338;2023-10-13T10:23:28;100870.19;;;11.55;69.72
70011;BME280;59543;37.950;-122.338;2023-10-13T10:26:09;100876.56;;;11.54;70.21
70011;BME280;59543;37.950;-122.338;2023-10-13T10:28:42;100869.59;;;11.61;70.42
70011;BME280;59543;37.950;-122.338;2023-10-13T10:31:13;100869.72;;;11.60;71.01
70011;BME280;59543;37.950;-122.338;2023-10-13T10:33:43;100863.63;;;11.58;71.88
70011;BME280;59543;37.950;-122.338;2023-10-13T10:36:10;100861.09;;;11.56;72.58
70011;BME280;59543;37.950;-122.338;2023-10-13T10:38:55;100867.44;;;11.65;72.27
70011;BME280;59543;37.950;-122.338;2023-10-13T10:41:26;100871.81;;;11.66;72.31
70011;BME280;59543;37.950;-122.338;2023-10-13T10:44:40;100862.66;;;11.59;73.29
70011;BME280;59543;37.950;-122.338;2023-10-13T10:47:12;100853.72;;;11.58;73.00
70011;BME280;59543;37.950;-122.338;2023-10-13T10:50:03;100846.78;;;11.56;72.81
70011;BME280;59543;37.950;-122.338;2023-10-13T10:52:55;100846.00;;;11.63;72.31
70011;BME280;59543;37.950;-122.338;2023-10-13T10:55:23;100850.88;;;11.60;72.46
70011;BME280;59543;37.950;-122.338;2023-10-13T10:58:00;100859.41;;;11.55;72.07
70011;BME280;59543;37.950;-122.338;2023-10-13T11:00:49;100861.25;;;11.73;73.76
70011;BME280;59543;37.950;-122.338;2023-10-13T11:03:17;100862.03;;;11.65;74.04
70011;BME280;59543;37.950;-122.338;2023-10-13T11:05:47;100861.19;;;11.47;75.44
70011;BME280;59543;37.950;-122.338;2023-10-13T11:08:24;100857.69;;;11.36;76.20
70011;BME280;59543;37.950;-122.338;2023-10-13T11:11:00;100859.13;;;11.31;76.19
70011;BME280;59543;37.950;-122.338;2023-10-13T11:13:27;100860.56;;;11.25;76.21
70011;BME280;59543;37.950;-122.338;2023-10-13T11:15:57;100849.19;;;11.13;75.01
70011;BME280;59543;37.950;-122.338;2023-10-13T11:18:31;100847.09;;;11.07;73.72
70011;BME280;59543;37.950;-122.338;2023-10-13T11:21:04;100847.97;;;10.98;74.57
70011;BME280;59543;37.950;-122.338;2023-10-13T11:23:33;100853.09;;;10.91;74.20
70011;BME280;59543;37.950;-122.338;2023-10-13T11:26:02;100852.81;;;10.94;74.04
70011;BME280;59543;37.950;-122.338;2023-10-13T11:28:33;100847.88;;;10.90;73.25
70011;BME280;59543;37.950;-122.338;2023-10-13T11:31:00;100848.97;;;10.97;72.25
70011;BME280;59543;37.950;-122.338;2023-10-13T11:33:42;100841.66;;;10.89;71.76
70011;BME280;59543;37.950;-122.338;2023-10-13T11:36:15;100844.19;;;10.91;70.80
70011;BME280;59543;37.950;-122.338;2023-10-13T11:38:48;100842.25;;;10.83;70.77
70011;BME280;59543;37.950;-122.338;2023-10-13T11:41:15;100846.94;;;10.81;70.69
70011;BME280;59543;37.950;-122.338;2023-10-13T11:43:52;100844.13;;;10.73;70.58
70011;BME280;59543;37.950;-122.338;2023-10-13T11:46:22;100850.78;;;10.69;70.04
70011;BME280;59543;37.950;-122.338;2023-10-13T11:49:08;100850.63;;;10.70;70.55
70011;BME280;59543;37.950;-122.338;2023-10-13T11:51:43;100846.56;;;10.66;70.24
70011;BME280;59543;37.950;-122.338;2023-10-13T11:56:44;100849.84;;;10.60;69.52
70011;BME280;59543;37.950;-122.338;2023-10-13T11:59:11;100845.16;;;10.62;69.64
70011;BME280;59543;37.950;-122.338;2023-10-13T12:01:47;100846.69;;;10.65;69.37
70011;BME280;59543;37.950;-122.338;2023-10-13T12:04:32;100841.59;;;10.62;69.84
70011;BME280;59543;37.950;-122.338;2023-10-13T12:07:08;100843.44;;;10.61;69.86
70011;BME280;59543;37.950;-122.338;2023-10-13T12:09:46;100848.56;;;10.55;70.21
70011;BME280;59543;37.950;-122.338;2023-10-13T12:12:22;100856.50;;;10.56;70.62
70011;BME280;59543;37.950;-122.338;2023-10-13T12:14:48;100861.03;;;10.46;71.00
70011;BME280;59543;37.950;-122.338;2023-10-13T12:17:28;100859.66;;;10.42;71.16
70011;BME280;59543;37.950;-122.338;2023-10-13T12:19:57;100866.28;;;10.38;70.90
70011;BME280;59543;37.950;-122.338;2023-10-13T12:22:25;100855.97;;;10.43;70.37
70011;BME280;59543;37.950;-122.338;2023-10-13T12:24:57;100852.97;;;10.46;69.98
70011;BME280;59543;37.950;-122.338;2023-10-13T12:27:23;100856.34;;;10.58;68.99
70011;BME280;59543;37.950;-122.338;2023-10-13T12:30:00;100868.84;;;10.39;69.34
70011;BME280;59543;37.950;-122.338;2023-10-13T12:32:34;100871.50;;;10.49;69.16
70011;BME280;59543;37.950;-122.338;2023-10-13T12:35:00;100867.44;;;10.45;69.40
70011;BME280;59543;37.950;-122.338;2023-10-13T12:37:30;100868.56;;;10.42;70.03
70011;BME280;59543;37.950;-122.338;2023-10-13T12:40:19;100864.75;;;10.45;70.67
70011;BME280;59543;37.950;-122.338;2023-10-13T12:43:04;100876.06;;;10.48;70.74
70011;BME280;59543;37.950;-122.338;2023-10-13T12:45:50;100880.59;;;10.48;69.76
70011;BME280;59543;37.950;-122.338;2023-10-13T12:48:36;100885.84;;;10.40;69.98
70011;BME280;59543;37.950;-122.338;2023-10-13T12:51:21;100879.63;;;10.29;70.07
70011;BME280;59543;37.950;-122.338;2023-10-13T12:53:55;100889.09;;;10.24;70.36
70011;BME280;59543;37.950;-122.338;2023-10-13T12:56:28;100890.09;;;10.23;70.71
70011;BME280;59543;37.950;-122.338;2023-10-13T12:58:54;100882.56;;;10.17;70.51
70011;BME280;59543;37.950;-122.338;2023-10-13T13:01:21;100881.16;;;10.13;70.85
70011;BME280;59543;37.950;-122.338;2023-10-13T13:03:49;100876.34;;;10.16;70.78
70011;BME280;59543;37.950;-122.338;2023-10-13T13:06:17;100872.25;;;10.12;70.72
70011;BME280;59543;37.950;-122.338;2023-10-13T13:08:44;100870.97;;;10.06;70.76
70011;BME280;59543;37.950;-122.338;2023-10-13T13:11:11;100861.25;;;10.05;70.64
70011;BME280;59543;37.950;-122.338;2023-10-13T13:13:37;100868.16;;;9.98;70.68
70011;BME280;59543;37.950;-122.338;2023-10-13T13:16:03;100867.19;;;9.99;70.33
70011;BME280;59543;37.950;-122.338;2023-10-13T13:18:29;100873.69;;;9.97;70.66